Latest Weather Observations for McCluer Island

IDD60801

Issued at 5:05 pm CST Saturday 29 November 2014 (issued every 30 minutes, with the page automatically refreshed every 10 minutes)

About weather observations | Map of weather stations | Latest weather observations for NT | Other Formats
Station Details ID: 014274 Name: MCCLUER ISLAND Lat: -11.05 Lon: 132.98 Height: 1.4 m
Data from the previous 72 hours. | See also: Recent months at McCluer Island
Date/Time
CST
Temp
°C
App
Temp
°C
Dew
Point
Rel
Hum
%
Delta-T
°C
Wind Press
QNH
hPa
Press
MSL
hPa
Rain
since 9 am
mm
Dir
 
Spd
km/h
Gust
km/h
Spd
kts
Gust
kts
29/05:00pm 30.3 35.9 29.0 93 1.0 NNE 19 22 10 12 1005.2 - 0.0
29/04:30pm 30.3 35.6 28.9 92 1.0 NNE 20 24 11 13 1005.0 - 0.0
29/04:00pm 30.0 35.0 28.2 90 1.3 NE 19 20 10 11 1005.2 - 0.0
29/03:30pm 30.0 35.2 28.4 91 1.2 NE 19 20 10 11 1005.4 - 0.0
29/03:00pm 30.7 36.8 29.2 92 1.1 NE 17 22 9 12 1005.3 1005.3 0.0
29/02:30pm 30.0 35.0 27.6 87 1.7 NE 17 20 9 11 1005.7 - 0.0
29/02:00pm 30.1 35.7 27.9 88 1.6 NE 15 19 8 10 1006.2 - 0.0
29/01:30pm 30.4 36.2 28.2 88 1.6 NE 15 19 8 10 1006.8 - 0.0
29/01:00pm 30.1 35.1 27.7 87 1.7 NNE 17 20 9 11 1007.2 - 0.0
29/12:30pm 30.5 36.3 28.3 88 1.6 NE 15 17 8 9 1007.8 - 0.0
29/12:00pm 30.2 36.2 28.0 88 1.6 NE 13 17 7 9 1008.3 1008.3 0.0
29/11:30am 29.8 35.4 27.4 87 1.7 NE 13 17 7 9 1008.7 - 0.0
29/11:00am 30.5 36.6 28.1 87 1.8 NE 13 15 7 8 1008.9 - 0.0
29/10:30am 30.3 36.5 27.7 86 1.9 ENE 11 15 6 8 1009.3 - 0.0
29/10:00am 30.0 35.4 27.2 85 2.0 ENE 13 15 7 8 1009.6 - 0.0
29/09:30am 30.0 36.0 28.0 89 1.5 ENE 13 15 7 8 1009.7 - 0.0
29/09:00am 29.8 35.7 28.4 92 1.0 ENE 15 20 8 11 1009.5 1009.5 0.0
29/08:30am 29.5 35.2 28.1 92 1.0 ENE 15 17 8 9 1009.5 - 0.0
29/08:00am 29.3 35.7 28.0 93 0.9 ENE 11 13 6 7 1009.3 - 0.0
29/07:30am 29.0 35.7 27.9 94 0.8 NE 9 13 5 7 1009.0 - 0.0
29/07:00am 28.9 36.0 28.0 95 0.7 NNE 7 9 4 5 1008.7 - 0.0
29/06:30am 28.4 35.3 27.7 96 0.5 N 7 9 4 5 1008.3 - 0.0
29/06:00am 28.3 35.2 27.6 96 0.5 NE 7 9 4 5 1008.0 1008.0 0.0
29/05:30am 28.3 35.4 27.6 96 0.5 NNE 6 9 3 5 1007.8 - 0.0
29/05:00am 28.3 34.8 27.6 96 0.5 N 9 11 5 6 1007.3 - 0.0
29/04:30am 28.4 35.0 27.7 96 0.5 N 9 13 5 7 1007.2 - 0.0
29/04:00am 28.4 35.2 27.5 95 0.6 N 7 11 4 6 1006.9 - 0.0
29/03:30am 28.6 35.4 28.1 97 0.4 NNE 9 11 5 6 1006.8 - 0.0
29/03:00am 28.5 34.6 27.6 95 0.7 NNE 11 13 6 7 1006.7 1006.7 0.0
29/02:00am 28.6 35.3 27.4 93 0.9 N 7 11 4 6 1007.4 - 0.0
29/01:30am 28.7 35.2 27.6 94 0.8 NNE 9 11 5 6 1007.9 - 0.0
29/01:00am 28.7 35.3 27.8 95 0.7 NNE 9 13 5 7 1008.0 - 0.0
29/12:30am 28.8 34.6 27.7 94 0.8 N 13 15 7 8 1008.3 - 0.0
29/12:00am 28.8 35.4 27.7 94 0.8 NNE 9 11 5 6 1008.6 1008.6 0.0
 
Date/Time
CST
Temp
°C
App
Temp
°C
Dew
Point
Rel
Hum
%
Delta-T
°C
Wind Press
QNH
hPa
Press
MSL
hPa
Rain
since 9 am
mm
Dir
 
Spd
km/h
Gust
km/h
Spd
kts
Gust
kts
28/11:30pm 28.8 35.3 27.6 93 0.9 NNE 9 15 5 8 1008.9 - 0.0
28/11:00pm 28.8 35.7 27.4 92 1.0 NE 6 9 3 5 1009.2 - 0.0
28/10:30pm 28.9 34.9 27.5 92 1.0 NE 11 13 6 7 1009.0 - 0.0
28/10:00pm 28.8 34.6 27.2 91 1.2 NNE 11 13 6 7 1008.7 - 0.0
28/08:30pm 28.8 34.8 27.4 92 1.0 NE 11 15 6 8 1007.9 - 0.0
28/08:00pm 28.9 34.7 27.7 93 0.9 NE 13 15 7 8 1007.7 - 0.0
28/07:30pm 29.1 34.7 28.0 94 0.8 NE 15 19 8 10 1007.3 - 0.0
28/07:00pm 29.4 35.0 28.0 92 1.0 NE 15 17 8 9 1006.9 - 0.0
28/06:30pm 29.5 35.6 28.1 92 1.0 NE 13 17 7 9 1006.6 - 0.0
28/06:00pm 29.3 34.8 27.3 89 1.4 NE 13 17 7 9 1006.3 1006.3 0.0
28/05:30pm 29.7 36.0 27.9 90 1.3 NNE 11 15 6 8 1006.1 - 0.0
28/05:00pm 29.5 34.6 27.3 88 1.6 NNE 15 17 8 9 1005.9 - 0.0
28/04:00pm 29.9 35.3 27.7 88 1.6 NNE 15 17 8 9 1005.7 - 0.0
28/03:30pm 30.4 36.0 28.0 87 1.7 NNE 15 19 8 10 1006.0 - 0.0
28/03:00pm 30.7 36.8 28.1 86 1.9 NE 13 15 7 8 1006.6 1006.6 0.0
28/02:30pm 30.7 37.5 28.5 88 1.6 NE 11 15 6 8 1007.1 - 0.0
28/02:00pm 30.1 35.8 27.5 86 1.9 NE 13 15 7 8 1007.5 - 0.0
28/01:30pm 30.6 36.5 28.4 88 1.6 NNE 15 19 8 10 1007.8 - 0.0
28/01:00pm 30.2 35.8 28.0 88 1.6 NE 15 17 8 9 1008.3 - 0.0
28/12:00pm 30.4 36.6 27.8 86 1.9 NNE 11 15 6 8 1009.1 1009.1 0.0
28/11:30am 30.2 36.2 28.0 88 1.6 NE 13 15 7 8 1009.5 - 0.0
28/11:00am 29.9 35.5 28.5 92 1.0 NE 17 20 9 11 1009.6 - 0.0
28/10:30am 30.2 36.7 28.6 91 1.2 NE 13 15 7 8 1010.1 - 0.0
28/10:00am 29.9 35.6 28.1 90 1.3 NNE 15 17 8 9 1010.1 - 0.0
28/09:30am 29.4 34.9 27.8 91 1.2 NE 15 19 8 10 1009.9 - 0.0
28/09:00am 29.3 34.9 28.0 93 0.9 NE 15 19 8 10 1010.0 1010.0 0.0
28/08:30am 29.4 35.6 28.3 94 0.8 NE 13 17 7 9 1010.2 - 0.0
28/08:00am 29.2 35.8 28.3 95 0.7 NE 11 15 6 8 1009.9 - 0.0
28/07:00am 28.7 35.1 28.5 99 0.1 NNE 13 17 7 9 1009.1 - 0.0
28/06:30am 28.6 34.1 28.4 99 0.1 NE 17 20 9 11 1008.8 - 0.0
28/06:00am 28.5 33.6 28.3 99 0.1 NE 19 22 10 12 1008.5 1008.5 0.0
28/05:30am 28.7 34.1 28.7 100 0.0 NE 19 20 10 11 1008.2 - 0.0
28/05:00am 28.5 33.5 28.5 100 0.0 NE 20 24 11 13 1008.2 - 0.0
28/04:00am 28.5 33.2 28.0 97 0.4 NE 20 24 11 13 1007.9 - 0.0
28/03:30am 28.5 33.0 28.3 99 0.1 NE 22 26 12 14 1007.6 - 0.0
28/03:00am 28.7 33.1 28.7 100 0.0 NE 24 28 13 15 1007.5 1007.5 0.0
28/02:30am 28.7 33.0 28.5 99 0.1 NE 24 28 13 15 1007.6 - 0.0
28/02:00am 28.9 33.9 28.9 100 0.0 NE 22 26 12 14 1007.6 - 0.0
28/01:30am 29.1 34.2 29.1 100 0.0 NE 22 26 12 14 1007.9 - 0.0
28/01:00am 28.9 33.0 28.7 99 0.1 NE 26 30 14 16 1007.9 - 0.0
28/12:30am 28.7 32.5 28.4 98 0.2 NE 26 32 14 17 1008.3 - 0.0
28/12:00am 28.8 33.1 28.5 98 0.2 ENE 24 30 13 16 1008.6 1008.6 0.0
 
Date/Time
CST
Temp
°C
App
Temp
°C
Dew
Point
Rel
Hum
%
Delta-T
°C
Wind Press
QNH
hPa
Press
MSL
hPa
Rain
since 9 am
mm
Dir
 
Spd
km/h
Gust
km/h
Spd
kts
Gust
kts
27/11:30pm 28.9 33.0 28.2 96 0.5 NE 24 28 13 15 1008.8 - 0.0
27/10:30pm 29.3 33.1 28.8 97 0.4 NE 28 35 15 19 1008.8 - 0.0
27/10:00pm 29.0 31.5 28.1 95 0.7 NE 32 37 17 20 1008.6 - 0.0
27/09:30pm 29.1 31.6 28.2 95 0.7 NE 32 35 17 19 1008.7 - 0.0
27/08:30pm 29.2 31.5 28.1 94 0.8 NE 33 39 18 21 1008.0 - 0.0
27/08:00pm 29.1 31.6 28.4 96 0.5 NE 33 37 18 20 1007.9 - 0.0
27/07:30pm 29.3 32.3 28.8 97 0.4 NE 32 37 17 20 1007.7 - 0.0
27/07:00pm 29.2 31.9 28.7 97 0.4 NE 33 39 18 21 1007.6 - 0.0
27/06:30pm 29.3 32.1 28.8 97 0.4 NE 33 39 18 21 1007.4 - 0.0
27/06:00pm 29.4 32.2 28.5 95 0.7 NE 32 37 17 20 1007.0 1007.0 0.0
27/05:00pm 29.8 32.9 28.9 95 0.7 NE 32 35 17 19 1006.8 - 0.0
27/04:30pm 29.9 32.7 28.6 93 1.0 ENE 32 35 17 19 1006.7 - 0.0
27/04:00pm 30.0 32.9 28.7 93 1.0 ENE 32 35 17 19 1006.7 - 0.0
27/03:30pm 30.1 33.2 28.5 91 1.2 ENE 30 35 16 19 1006.7 - 0.0
27/03:00pm 30.2 33.6 28.8 92 1.0 ENE 30 33 16 18 1007.1 1007.1 0.0
27/02:30pm 30.3 33.8 28.5 90 1.3 E 28 35 15 19 1007.4 - 0.0
27/02:00pm 30.2 34.7 28.8 92 1.0 ENE 24 28 13 15 1007.7 - 0.0
27/01:30pm 30.8 36.1 29.3 92 1.1 ENE 22 26 12 14 1008.0 - 0.0
27/01:00pm 30.1 35.3 28.7 92 1.0 ENE 20 24 11 13 1008.4 - 0.0
27/12:30pm 30.5 35.0 28.3 88 1.6 E 22 26 12 14 1008.6 - 0.0
27/12:00pm 30.5 35.2 28.5 89 1.5 E 22 26 12 14 1008.9 1008.9 0.0
27/11:30am 31.0 35.7 28.6 87 1.8 E 22 28 12 15 1009.2 - 0.0
27/11:00am 30.6 35.7 28.6 89 1.5 E 20 22 11 12 1009.5 - 0.0
27/10:30am 29.9 34.0 27.7 88 1.6 E 22 26 12 14 1009.5 - 0.0
27/10:00am 29.6 33.9 28.0 91 1.2 ENE 22 26 12 14 1009.7 - 0.0
27/09:30am 29.6 33.5 28.0 91 1.2 E 24 28 13 15 1009.6 - 0.0
27/09:00am 29.6 34.0 28.2 92 1.0 E 22 26 12 14 1009.3 1009.3 0.8
27/08:30am 29.3 33.5 27.9 92 1.0 ENE 22 26 12 14 1009.0 - 0.8
27/08:00am 29.1 32.8 27.7 92 1.0 E 24 28 13 15 1008.9 - 0.8
27/07:30am 29.3 33.9 28.4 95 0.7 ENE 22 26 12 14 1008.6 - 0.8
27/07:00am 28.9 33.1 27.8 94 0.8 E 22 26 12 14 1008.4 - 0.8
27/06:30am 28.5 32.7 27.8 96 0.5 ENE 22 26 12 14 1008.0 - 0.8
27/06:00am 28.4 32.9 27.7 96 0.5 ENE 20 26 11 14 1007.7 1007.7 0.8
27/05:30am 28.4 32.1 27.2 93 0.9 ENE 22 24 12 13 1007.6 - 0.8
27/05:00am 28.7 33.4 28.0 96 0.5 ENE 20 24 11 13 1007.0 - 0.8
27/04:30am 28.6 32.7 27.7 95 0.7 ENE 22 26 12 14 1006.9 - 0.8
27/04:00am 28.8 33.2 28.1 96 0.5 ENE 22 26 12 14 1006.9 - 0.8
27/03:30am 28.6 32.3 27.7 95 0.7 ENE 24 28 13 15 1006.8 - 0.8
27/03:00am 28.7 33.1 28.2 97 0.4 ENE 22 26 12 14 1006.9 1006.9 0.8
27/02:30am 29.0 33.3 28.5 97 0.4 ENE 24 28 13 15 1007.0 - 0.8
27/02:00am 28.6 33.1 28.3 98 0.2 ENE 22 26 12 14 1007.1 - 0.8
27/01:30am 28.6 33.0 28.1 97 0.4 ENE 22 26 12 14 1007.3 - 0.8
27/01:00am 28.8 32.8 28.1 96 0.5 ENE 24 30 13 16 1007.5 - 0.8
27/12:30am 28.8 33.9 28.3 97 0.4 ENE 19 20 10 11 1007.8 - 0.8
27/12:00am 28.7 33.6 28.0 96 0.5 ENE 19 20 10 11 1008.0 1008.0 0.8
 
Date/Time
CST
Temp
°C
App
Temp
°C
Dew
Point
Rel
Hum
%
Delta-T
°C
Wind Press
QNH
hPa
Press
MSL
hPa
Rain
since 9 am
mm
Dir
 
Spd
km/h
Gust
km/h
Spd
kts
Gust
kts
26/11:30pm 28.8 34.1 28.1 96 0.5 ENE 17 20 9 11 1008.1 - 0.8
26/11:00pm 29.0 33.8 28.1 95 0.7 ENE 20 24 11 13 1008.4 - 0.8
26/10:30pm 28.8 32.8 27.6 93 0.9 ENE 22 26 12 14 1008.4 - 0.8
26/10:00pm 28.9 32.6 27.7 93 0.9 E 24 28 13 15 1008.3 - 0.8
26/09:30pm 29.0 32.3 27.7 93 0.9 ENE 26 32 14 17 1008.0 - 0.8
26/09:00pm 28.7 32.2 26.9 90 1.3 ENE 22 26 12 14 1007.8 1007.8 0.8
26/08:30pm 29.0 33.0 27.6 92 1.0 ENE 22 28 12 15 1007.2 - 0.8
26/08:00pm 28.8 31.3 27.0 90 1.3 NE 28 32 15 17 1006.7 - 0.8
26/07:30pm 28.9 31.8 27.1 90 1.3 ENE 26 28 14 15 1006.3 - 0.8
26/07:00pm 28.7 31.7 26.7 89 1.4 ENE 24 28 13 15 1006.1 - 0.8
26/06:30pm 28.9 32.0 26.9 89 1.4 ENE 24 26 13 14 1006.0 - 0.8
26/06:00pm 29.6 33.2 27.6 89 1.5 ENE 24 28 13 15 1006.0 1006.0 0.8
26/05:30pm 29.3 32.0 27.3 89 1.4 ENE 28 33 15 18 1005.9 - 0.8

Other Formats:

Comma delimited format used in spreadsheet applications
http://www.bom.gov.au/fwo/IDD60801/IDD60801.94135.axf

JavaScript Object Notation format (JSON) in row-major order
http://www.bom.gov.au/fwo/IDD60801/IDD60801.94135.json